Time;durP1;ratioP1;P1;durP2;ratioP2;P2;SDS_P1;SDS_P2;PMS_P1;PMS_P2;Temp;Humidity;BMP_temperature;BMP_pressure;BME280_temperature;BME280_humidity;BME280_pressure;Samples;Min_cycle;Max_cycle;Signal;HPM_P1;HPM_P2
2022/09/03 00:02:35;;;;;;;;;;;21.70;63.20;;;;;;5049691;28;1401;-68
2022/09/03 00:05:04;;;;;;;;;;;21.70;63.40;;;;;;5047316;28;1965;-70
2022/09/03 00:07:38;;;;;;;;;;;21.70;63.40;;;;;;5052863;28;1269;-68
2022/09/03 00:10:07;;;;;;;;;;;21.70;63.40;;;;;;5051450;28;1112;-69
2022/09/03 00:12:35;;;;;;;;;;;21.70;63.40;;;;;;5051190;28;1294;-69
2022/09/03 00:15:07;;;;;;;;;;;21.70;63.40;;;;;;5052599;28;1271;-69
2022/09/03 00:17:32;;;;;;;;;;;21.70;63.40;;;;;;5052718;28;1302;-69
2022/09/03 00:20:10;;;;;;;;;;;21.70;63.40;;;;;;5051410;28;1359;-68
2022/09/03 00:22:36;;;;;;;;;;;21.70;63.50;;;;;;5051231;28;1298;-69
2022/09/03 00:25:02;;;;;;;;;;;21.70;63.50;;;;;;5051033;28;1906;-69
2022/09/03 00:27:28;;;;;;;;;;;21.70;63.50;;;;;;5041908;28;1335;-69
2022/09/03 00:29:56;;;;;;;;;;;21.70;63.50;;;;;;5052360;28;1407;-69
2022/09/03 00:32:27;;;;;;;;;;;21.70;63.50;;;;;;5051074;28;1281;-69
2022/09/03 00:34:55;;;;;;;;;;;21.70;63.50;;;;;;5051279;28;1315;-69
2022/09/03 00:37:21;;;;;;;;;;;21.70;63.60;;;;;;5052101;28;1251;-69
2022/09/03 00:39:46;;;;;;;;;;;21.70;63.50;;;;;;5052432;28;1248;-69
2022/09/03 00:42:20;;;;;;;;;;;21.70;63.60;;;;;;5052081;28;1285;-69
2022/09/03 00:44:52;;;;;;;;;;;21.70;63.60;;;;;;5054993;28;1949;-69
2022/09/03 00:47:36;;;;;;;;;;;21.70;63.60;;;;;;5056705;28;1280;-69
2022/09/03 00:50:18;;;;;;;;;;;21.70;63.70;;;;;;5056406;28;1525;-69
2022/09/03 00:52:49;;;;;;;;;;;21.70;63.70;;;;;;5054731;28;1320;-68
2022/09/03 00:55:19;;;;;;;;;;;21.70;63.70;;;;;;5055983;28;1302;-69
2022/09/03 00:57:52;;;;;;;;;;;21.70;63.70;;;;;;5054911;28;1293;-68
2022/09/03 01:00:18;;;;;;;;;;;21.70;63.80;;;;;;5071390;28;1303;-68
2022/09/03 01:02:45;;;;;;;;;;;21.70;63.70;;;;;;5054503;28;1411;-68
2022/09/03 01:05:29;;;;;;;;;;;21.70;64.50;;;;;;5055714;28;1897;-68
2022/09/03 01:08:01;;;;;;;;;;;21.70;63.80;;;;;;5055922;28;1293;-68
2022/09/03 01:10:29;;;;;;;;;;;21.70;63.80;;;;;;5054647;28;1578;-70
2022/09/03 01:13:04;;;;;;;;;;;21.70;63.80;;;;;;5054688;28;1349;-69
2022/09/03 01:15:43;;;;;;;;;;;21.70;63.80;;;;;;5055876;28;1301;-70
2022/09/03 01:18:20;;;;;;;;;;;21.70;63.90;;;;;;5054591;28;1289;-70
2022/09/03 01:20:48;;;;;;;;;;;21.70;63.90;;;;;;5054516;28;1277;-69
2022/09/03 01:23:25;;;;;;;;;;;21.70;63.90;;;;;;5054947;28;1231;-70
2022/09/03 01:26:00;;;;;;;;;;;21.70;63.90;;;;;;5056270;28;1079;-69
2022/09/03 01:28:44;;;;;;;;;;;21.70;63.90;;;;;;5045257;28;1107;-69
2022/09/03 01:31:10;;;;;;;;;;;21.70;64.00;;;;;;5048649;28;1067;-69
2022/09/03 01:33:40;;;;;;;;;;;21.70;64.00;;;;;;5044389;28;1371;-69
2022/09/03 01:36:16;;;;;;;;;;;21.70;64.00;;;;;;5040915;28;1115;-69
2022/09/03 01:38:51;;;;;;;;;;;21.70;64.00;;;;;;5043502;28;1119;-68
2022/09/03 01:44:26;;;;;;;;;;;21.70;64.00;;;;;;5055018;28;1909;-68
2022/09/03 01:46:57;;;;;;;;;;;21.70;64.10;;;;;;5043867;28;1075;-68
2022/09/03 01:49:41;;;;;;;;;;;21.70;64.10;;;;;;5047674;28;1116;-68
2022/09/03 01:52:11;;;;;;;;;;;21.70;64.10;;;;;;5048180;28;1150;-69
2022/09/03 01:54:55;;;;;;;;;;;21.70;64.10;;;;;;5043227;28;1263;-68
2022/09/03 01:57:26;;;;;;;;;;;21.70;64.10;;;;;;5042464;28;1043;-68
2022/09/03 02:00:09;;;;;;;;;;;21.70;64.10;;;;;;5050555;28;1072;-67
2022/09/03 02:02:35;;;;;;;;;;;21.70;64.20;;;;;;5057853;28;1380;-67
2022/09/03 02:05:08;;;;;;;;;;;21.70;64.10;;;;;;5053688;28;1910;-67
2022/09/03 02:07:35;;;;;;;;;;;21.70;64.20;;;;;;5037106;28;1301;-67
2022/09/03 02:10:01;;;;;;;;;;;21.70;64.20;;;;;;5053698;28;1296;-68
2022/09/03 02:12:27;;;;;;;;;;;21.70;64.20;;;;;;5053390;28;1300;-68
2022/09/03 02:14:53;;;;;;;;;;;21.70;64.20;;;;;;5053503;28;1306;-67
2022/09/03 02:17:19;;;;;;;;;;;21.70;64.20;;;;;;5054495;28;1321;-68
2022/09/03 02:19:44;;;;;;;;;;;21.70;64.30;;;;;;5054721;28;1366;-67
2022/09/03 02:22:10;;;;;;;;;;;21.70;64.30;;;;;;5054404;28;1276;-67
2022/09/03 02:24:35;;;;;;;;;;;21.70;64.30;;;;;;5053012;28;1918;-67
2022/09/03 02:27:01;;;;;;;;;;;21.70;64.20;;;;;;5048702;28;1118;-67
2022/09/03 02:29:26;;;;;;;;;;;21.70;64.30;;;;;;5041059;28;1312;-68
2022/09/03 02:31:52;;;;;;;;;;;21.70;64.30;;;;;;5046164;28;1063;-67
2022/09/03 02:34:17;;;;;;;;;;;21.70;64.30;;;;;;5048954;28;1358;-69
2022/09/03 02:36:46;;;;;;;;;;;21.70;64.40;;;;;;5054407;28;1403;-67
2022/09/03 02:39:12;;;;;;;;;;;21.70;64.30;;;;;;5053178;28;1178;-67
2022/09/03 02:41:37;;;;;;;;;;;21.70;64.30;;;;;;5053995;28;1123;-68
2022/09/03 02:44:06;;;;;;;;;;;21.70;64.40;;;;;;5053977;28;1984;-67
2022/09/03 02:46:33;;;;;;;;;;;21.70;64.40;;;;;;5045641;28;1075;-67
2022/09/03 02:48:58;;;;;;;;;;;21.70;64.40;;;;;;5048103;28;1435;-67
2022/09/03 02:51:24;;;;;;;;;;;21.70;64.40;;;;;;5046016;28;1115;-70
2022/09/03 02:53:49;;;;;;;;;;;21.70;64.40;;;;;;5047483;28;1278;-67
2022/09/03 02:56:14;;;;;;;;;;;21.70;64.40;;;;;;5041984;28;1138;-67
2022/09/03 02:58:40;;;;;;;;;;;21.70;64.40;;;;;;5053955;28;1174;-70
2022/09/03 03:01:05;;;;;;;;;;;21.70;64.40;;;;;;5053667;28;1044;-67
2022/09/03 03:03:31;;;;;;;;;;;21.70;64.40;;;;;;5053618;28;1902;-68
2022/09/03 03:05:59;;;;;;;;;;;21.70;64.40;;;;;;5053427;28;1318;-70
2022/09/03 03:08:26;;;;;;;;;;;21.70;64.40;;;;;;5052010;28;1274;-67
2022/09/03 03:10:52;;;;;;;;;;;21.70;64.50;;;;;;5052532;28;1355;-67
2022/09/03 03:13:18;;;;;;;;;;;21.70;64.50;;;;;;5051978;28;1305;-67
2022/09/03 03:15:44;;;;;;;;;;;21.70;64.50;;;;;;5035532;28;1093;-67
2022/09/03 03:18:13;;;;;;;;;;;21.70;64.50;;;;;;5053697;28;1250;-68
2022/09/03 03:20:38;;;;;;;;;;;21.70;64.50;;;;;;5052353;28;1394;-67
2022/09/03 03:23:04;;;;;;;;;;;21.70;64.50;;;;;;5051810;28;1424;-67
2022/09/03 03:25:33;;;;;;;;;;;21.70;64.50;;;;;;5051898;28;1964;-69
2022/09/03 03:27:59;;;;;;;;;;;21.70;64.50;;;;;;5043958;28;1067;-69
2022/09/03 03:30:25;;;;;;;;;;;21.70;64.50;;;;;;5043636;28;1072;-68
2022/09/03 03:32:51;;;;;;;;;;;21.70;64.60;;;;;;5051849;28;1239;-68
2022/09/03 03:35:17;;;;;;;;;;;21.70;64.60;;;;;;5053162;28;1188;-67
2022/09/03 03:37:42;;;;;;;;;;;21.70;64.60;;;;;;5039811;28;1178;-68
2022/09/03 03:40:08;;;;;;;;;;;21.70;64.60;;;;;;5053241;28;1347;-69
2022/09/03 03:42:33;;;;;;;;;;;21.70;64.60;;;;;;5052436;28;1247;-67
2022/09/03 03:45:01;;;;;;;;;;;21.70;64.60;;;;;;5052915;28;1898;-67
2022/09/03 03:47:27;;;;;;;;;;;21.70;64.60;;;;;;5052954;28;1284;-68
2022/09/03 03:49:53;;;;;;;;;;;21.70;64.60;;;;;;5051845;28;1084;-68
2022/09/03 03:52:18;;;;;;;;;;;21.70;64.60;;;;;;5052699;28;1271;-68
2022/09/03 03:54:44;;;;;;;;;;;21.70;64.60;;;;;;5052810;28;1281;-68
2022/09/03 03:57:09;;;;;;;;;;;21.70;64.60;;;;;;5052780;28;1288;-68
2022/09/03 03:59:35;;;;;;;;;;;21.70;64.70;;;;;;5052822;28;1345;-68
2022/09/03 04:02:00;;;;;;;;;;;21.70;64.70;;;;;;5052551;28;1385;-67
2022/09/03 04:04:25;;;;;;;;;;;21.70;64.70;;;;;;5052500;28;1970;-67
2022/09/03 04:06:51;;;;;;;;;;;21.70;64.70;;;;;;5052653;28;1384;-68
2022/09/03 04:09:16;;;;;;;;;;;21.70;64.70;;;;;;5043731;28;1111;-67
2022/09/03 04:11:42;;;;;;;;;;;21.70;64.70;;;;;;5048312;28;1102;-68
2022/09/03 04:14:07;;;;;;;;;;;21.70;64.80;;;;;;5052415;28;1345;-68
2022/09/03 04:16:33;;;;;;;;;;;21.70;64.80;;;;;;5039332;28;1207;-67
2022/09/03 04:18:58;;;;;;;;;;;21.70;64.80;;;;;;5052325;28;1276;-68
2022/09/03 04:21:25;;;;;;;;;;;21.70;64.80;;;;;;5052341;28;1200;-68
2022/09/03 04:23:50;;;;;;;;;;;21.70;64.80;;;;;;5051181;28;1964;-67
2022/09/03 04:26:16;;;;;;;;;;;21.70;64.80;;;;;;5049588;28;1018;-68
2022/09/03 04:28:44;;;;;;;;;;;21.70;64.80;;;;;;5047810;28;1230;-68
2022/09/03 04:31:09;;;;;;;;;;;21.70;64.80;;;;;;5047897;28;1322;-68
2022/09/03 04:33:36;;;;;;;;;;;21.70;64.80;;;;;;5050996;28;1313;-68
2022/09/03 04:36:04;;;;;;;;;;;21.70;64.80;;;;;;5037954;28;1153;-68
2022/09/03 04:38:31;;;;;;;;;;;21.70;64.90;;;;;;5052562;28;1123;-68
2022/09/03 04:40:58;;;;;;;;;;;21.70;64.80;;;;;;5037839;28;1068;-67
2022/09/03 04:43:23;;;;;;;;;;;21.70;64.90;;;;;;5052216;28;1354;-67
2022/09/03 04:45:48;;;;;;;;;;;21.70;64.90;;;;;;5051133;28;1901;-68
2022/09/03 04:48:14;;;;;;;;;;;21.70;64.90;;;;;;5052427;28;1226;-67
2022/09/03 04:50:40;;;;;;;;;;;21.70;64.90;;;;;;5052389;28;1247;-68
2022/09/03 04:53:05;;;;;;;;;;;21.70;64.90;;;;;;5052048;28;1346;-72
2022/09/03 04:55:34;;;;;;;;;;;21.70;64.90;;;;;;5052068;28;1315;-68
2022/09/03 04:58:00;;;;;;;;;;;21.70;64.90;;;;;;5051120;28;1151;-68
2022/09/03 05:00:25;;;;;;;;;;;21.70;64.90;;;;;;5052309;28;1227;-67
2022/09/03 05:02:50;;;;;;;;;;;21.70;64.90;;;;;;5051910;28;1420;-67
2022/09/03 05:05:16;;;;;;;;;;;21.70;64.90;;;;;;5051978;28;1902;-67
2022/09/03 05:07:42;;;;;;;;;;;21.70;64.90;;;;;;5052300;28;1273;-68
2022/09/03 05:10:08;;;;;;;;;;;21.70;65.00;;;;;;5052053;28;1349;-68
2022/09/03 05:12:34;;;;;;;;;;;21.70;65.00;;;;;;5052006;28;1298;-68
2022/09/03 05:14:59;;;;;;;;;;;21.70;65.00;;;;;;5052002;28;1366;-68
2022/09/03 05:17:28;;;;;;;;;;;21.70;65.00;;;;;;5052188;28;1267;-67
2022/09/03 05:19:53;;;;;;;;;;;21.70;65.00;;;;;;5052147;28;1147;-67
2022/09/03 05:22:21;;;;;;;;;;;21.70;64.90;;;;;;5051851;28;1278;-67
2022/09/03 05:24:50;;;;;;;;;;;21.70;65.00;;;;;;5051540;28;1969;-67
2022/09/03 05:27:15;;;;;;;;;;;21.70;65.00;;;;;;5043657;28;1870;-68
2022/09/03 05:29:41;;;;;;;;;;;21.70;65.00;;;;;;5041789;28;1895;-68
2022/09/03 05:32:07;;;;;;;;;;;21.70;65.00;;;;;;5048167;28;1106;-68
2022/09/03 05:34:32;;;;;;;;;;;21.70;65.00;;;;;;5050567;28;1383;-68
2022/09/03 05:36:58;;;;;;;;;;;21.70;65.00;;;;;;5054301;28;1309;-67
2022/09/03 05:39:23;;;;;;;;;;;21.70;65.00;;;;;;5054077;28;1165;-67
2022/09/03 05:41:52;;;;;;;;;;;21.70;65.10;;;;;;5054208;28;1369;-68
2022/09/03 05:44:17;;;;;;;;;;;21.70;65.00;;;;;;5054178;28;1959;-69
2022/09/03 05:46:43;;;;;;;;;;;21.70;65.00;;;;;;5048120;28;1459;-68
2022/09/03 05:49:10;;;;;;;;;;;21.70;65.00;;;;;;5052978;28;1284;-68
2022/09/03 05:51:36;;;;;;;;;;;21.70;65.00;;;;;;5054018;28;1282;-69
2022/09/03 05:54:02;;;;;;;;;;;21.70;65.00;;;;;;5054069;28;1275;-67
2022/09/03 05:56:28;;;;;;;;;;;21.70;65.00;;;;;;5054365;28;1309;-67
2022/09/03 05:58:54;;;;;;;;;;;21.70;65.00;;;;;;5053897;28;1289;-71
2022/09/03 06:01:20;;;;;;;;;;;21.70;65.00;;;;;;5053789;28;1186;-67
2022/09/03 06:03:47;;;;;;;;;;;21.70;65.00;;;;;;5053684;28;1910;-69
2022/09/03 06:06:12;;;;;;;;;;;21.70;65.00;;;;;;5054060;28;1283;-69
2022/09/03 06:08:38;;;;;;;;;;;21.70;65.00;;;;;;5053781;28;1281;-70
2022/09/03 06:11:03;;;;;;;;;;;21.70;65.00;;;;;;5052506;28;1288;-70
2022/09/03 06:13:29;;;;;;;;;;;21.70;65.00;;;;;;5053653;28;1349;-70
2022/09/03 06:15:58;;;;;;;;;;;21.70;65.10;;;;;;5052579;28;1139;-70
2022/09/03 06:18:24;;;;;;;;;;;21.70;65.00;;;;;;5053681;28;1311;-69
2022/09/03 06:20:55;;;;;;;;;;;21.70;65.10;;;;;;5053586;28;1356;-70
2022/09/03 06:23:21;;;;;;;;;;;21.70;65.20;;;;;;5051937;28;1307;-67
2022/09/03 06:25:46;;;;;;;;;;;21.70;65.50;;;;;;5053402;28;1906;-70
2022/09/03 06:28:12;;;;;;;;;;;21.70;65.50;;;;;;5047519;28;1446;-67
2022/09/03 06:30:37;;;;;;;;;;;21.70;65.60;;;;;;5053420;28;1276;-67
2022/09/03 06:33:03;;;;;;;;;;;21.70;65.50;;;;;;5053101;28;1277;-67
2022/09/03 06:35:28;;;;;;;;;;;21.70;65.50;;;;;;5053349;28;1220;-68
2022/09/03 06:37:54;;;;;;;;;;;21.70;65.60;;;;;;5053065;28;1329;-68
2022/09/03 06:40:21;;;;;;;;;;;21.70;65.50;;;;;;5053227;28;1274;-66
2022/09/03 06:42:54;;;;;;;;;;;21.70;65.60;;;;;;5052793;28;1498;-68
2022/09/03 06:45:20;;;;;;;;;;;21.70;65.60;;;;;;5051800;28;1943;-66
2022/09/03 06:47:45;;;;;;;;;;;21.70;65.50;;;;;;5053116;28;1498;-66
2022/09/03 06:50:11;;;;;;;;;;;21.70;65.40;;;;;;5053040;28;1297;-67
2022/09/03 06:52:36;;;;;;;;;;;21.70;65.60;;;;;;5052514;28;1338;-66
2022/09/03 06:55:02;;;;;;;;;;;21.70;65.80;;;;;;5053234;28;1186;-65
2022/09/03 06:57:28;;;;;;;;;;;21.70;65.80;;;;;;5053298;28;1452;-68
2022/09/03 06:59:54;;;;;;;;;;;21.70;65.70;;;;;;5053946;28;1290;-69
2022/09/03 07:02:21;;;;;;;;;;;21.70;65.70;;;;;;5044340;28;2126;-70
2022/09/03 07:04:48;;;;;;;;;;;21.70;65.70;;;;;;5040319;28;2210;-69
2022/09/03 07:07:15;;;;;;;;;;;21.70;65.70;;;;;;5053610;28;1739;-70
2022/09/03 07:09:40;;;;;;;;;;;21.70;65.60;;;;;;5041335;28;1583;-70
2022/09/03 07:12:06;;;;;;;;;;;21.70;65.60;;;;;;5053464;28;1741;-69
2022/09/03 07:14:31;;;;;;;;;;;21.70;65.70;;;;;;5053624;28;1362;-69
2022/09/03 07:16:57;;;;;;;;;;;21.70;65.60;;;;;;5041063;28;1664;-69
2022/09/03 07:19:22;;;;;;;;;;;21.70;65.60;;;;;;5053689;28;1683;-69
2022/09/03 07:21:48;;;;;;;;;;;21.70;65.60;;;;;;5053443;28;1500;-69
2022/09/03 07:24:14;;;;;;;;;;;21.70;65.60;;;;;;5053593;28;1969;-69
2022/09/03 07:26:42;;;;;;;;;;;21.70;65.60;;;;;;5051314;22;3860;-65
2022/09/03 07:29:08;;;;;;;;;;;21.70;65.60;;;;;;5030726;28;973;-65
2022/09/03 07:31:34;;;;;;;;;;;21.70;65.60;;;;;;5034275;28;1503;-65
2022/09/03 07:34:02;;;;;;;;;;;21.70;65.60;;;;;;5028929;28;1241;-65
2022/09/03 07:36:28;;;;;;;;;;;21.70;65.60;;;;;;5037122;28;1350;-65
2022/09/03 07:38:54;;;;;;;;;;;21.70;65.60;;;;;;5032688;28;1923;-65
2022/09/03 07:41:20;;;;;;;;;;;21.70;65.60;;;;;;5037726;28;1450;-65
2022/09/03 07:43:46;;;;;;;;;;;21.70;65.60;;;;;;5032726;28;1910;-65
2022/09/03 07:46:12;;;;;;;;;;;21.70;65.50;;;;;;5032426;28;1287;-65
2022/09/03 07:48:38;;;;;;;;;;;21.70;65.60;;;;;;5032471;28;1047;-65
2022/09/03 07:51:04;;;;;;;;;;;21.70;65.60;;;;;;5031862;28;1401;-65
2022/09/03 07:53:29;;;;;;;;;;;21.70;65.70;;;;;;5032255;28;1341;-65
2022/09/03 07:56:04;;;;;;;;;;;21.70;65.60;;;;;;5032615;28;1311;-65
2022/09/03 07:58:30;;;;;;;;;;;21.70;65.60;;;;;;5031221;28;1155;-65
2022/09/03 08:00:56;;;;;;;;;;;21.70;65.50;;;;;;5031977;28;1071;-65
2022/09/03 08:03:21;;;;;;;;;;;21.70;65.60;;;;;;5031213;28;1451;-65
2022/09/03 08:05:47;;;;;;;;;;;21.70;65.60;;;;;;5031544;28;1902;-65
2022/09/03 08:08:13;;;;;;;;;;;21.70;65.60;;;;;;5032228;28;1390;-65
2022/09/03 08:10:39;;;;;;;;;;;21.70;65.60;;;;;;5032705;28;1277;-65
2022/09/03 08:13:04;;;;;;;;;;;21.70;65.60;;;;;;5031612;28;1265;-65
2022/09/03 08:15:30;;;;;;;;;;;21.70;65.70;;;;;;5032708;28;1359;-65
2022/09/03 08:17:56;;;;;;;;;;;21.70;65.60;;;;;;5032243;28;1290;-65
2022/09/03 08:20:21;;;;;;;;;;;21.70;65.60;;;;;;5032521;28;1429;-65
2022/09/03 08:22:47;;;;;;;;;;;21.70;65.70;;;;;;5032064;28;1396;-65
2022/09/03 08:25:13;;;;;;;;;;;21.70;65.70;;;;;;5030879;28;2039;-65
2022/09/03 08:27:38;;;;;;;;;;;21.70;65.70;;;;;;5025931;28;1341;-65
2022/09/03 08:30:04;;;;;;;;;;;21.70;65.70;;;;;;5032106;28;1278;-65
2022/09/03 08:32:30;;;;;;;;;;;21.70;65.70;;;;;;5031862;28;1262;-65
2022/09/03 08:34:55;;;;;;;;;;;21.70;65.70;;;;;;5032100;28;1325;-64
2022/09/03 08:37:24;;;;;;;;;;;21.70;65.70;;;;;;5032138;28;1193;-64
2022/09/03 08:39:49;;;;;;;;;;;21.70;65.70;;;;;;5018830;28;1232;-64
2022/09/03 08:42:15;;;;;;;;;;;21.70;65.70;;;;;;5021786;28;1637;-64
2022/09/03 08:44:47;;;;;;;;;;;21.70;65.80;;;;;;5022324;28;1989;-63
2022/09/03 08:47:17;;;;;;;;;;;21.70;65.80;;;;;;5029931;28;1185;-64
2022/09/03 08:49:46;;;;;;;;;;;21.70;65.70;;;;;;5030179;28;1253;-64
2022/09/03 08:52:31;;;;;;;;;;;21.70;65.80;;;;;;5044794;28;1291;-63
2022/09/03 08:55:12;;;;;;;;;;;21.70;65.80;;;;;;5050356;28;1357;-64
2022/09/03 08:57:40;;;;;;;;;;;21.70;65.80;;;;;;5043426;28;1002;-64
2022/09/03 09:00:06;;;;;;;;;;;21.70;65.80;;;;;;5029694;28;1308;-64
2022/09/03 09:02:40;;;;;;;;;;;21.70;65.80;;;;;;5036493;28;1394;-64
2022/09/03 09:05:11;;;;;;;;;;;21.70;65.80;;;;;;5048822;28;1969;-64
2022/09/03 09:07:52;;;;;;;;;;;21.70;65.80;;;;;;5032627;28;1350;-64
2022/09/03 09:10:17;;;;;;;;;;;21.70;65.80;;;;;;5033897;28;1318;-64
2022/09/03 09:12:48;;;;;;;;;;;21.70;65.80;;;;;;5032980;28;1279;-64
2022/09/03 09:15:20;;;;;;;;;;;21.70;65.80;;;;;;5033321;28;1354;-64
2022/09/03 09:17:52;;;;;;;;;;;21.70;65.80;;;;;;5032823;28;1280;-64
2022/09/03 09:20:40;;;;;;;;;;;21.70;65.80;;;;;;5032979;28;1261;-64
2022/09/03 09:23:06;;;;;;;;;;;21.70;65.80;;;;;;5032901;28;1582;-64
2022/09/03 09:25:38;;;;;;;;;;;21.70;65.90;;;;;;5033221;28;1902;-64
2022/09/03 09:28:10;;;;;;;;;;;21.70;65.90;;;;;;5027476;28;1381;-64
2022/09/03 09:30:35;;;;;;;;;;;21.70;65.90;;;;;;5031696;28;1335;-64
2022/09/03 09:33:00;;;;;;;;;;;21.80;66.00;;;;;;5010673;28;1321;-64
2022/09/03 09:35:26;;;;;;;;;;;21.70;65.90;;;;;;5033229;28;1320;-64
2022/09/03 09:37:52;;;;;;;;;;;21.80;66.00;;;;;;5032626;28;1374;-64
2022/09/03 09:40:22;;;;;;;;;;;21.70;65.90;;;;;;5033112;28;1319;-64
2022/09/03 09:42:47;;;;;;;;;;;21.70;66.00;;;;;;5032744;28;1357;-64
2022/09/03 09:45:13;;;;;;;;;;;21.80;66.00;;;;;;5034109;28;1962;-64
2022/09/03 09:47:38;;;;;;;;;;;21.80;66.00;;;;;;5035381;28;1309;-64
2022/09/03 09:50:13;;;;;;;;;;;21.70;66.00;;;;;;5032845;28;1291;-63
2022/09/03 09:52:39;;;;;;;;;;;21.80;66.00;;;;;;5032943;28;1264;-64
2022/09/03 09:55:07;;;;;;;;;;;21.70;66.00;;;;;;5034519;28;1606;-64
2022/09/03 09:57:33;;;;;;;;;;;21.70;66.00;;;;;;5034484;28;1293;-64
2022/09/03 10:00:08;;;;;;;;;;;21.70;66.00;;;;;;5034579;28;1260;-64
2022/09/03 10:02:33;;;;;;;;;;;21.70;66.00;;;;;;5033262;28;1422;-64
2022/09/03 10:05:12;;;;;;;;;;;21.70;66.00;;;;;;5050085;28;1918;-64
2022/09/03 10:07:38;;;;;;;;;;;21.70;66.10;;;;;;5033475;28;1072;-63
2022/09/03 10:10:04;;;;;;;;;;;21.70;66.10;;;;;;5032553;28;1296;-63
2022/09/03 10:12:33;;;;;;;;;;;21.70;66.10;;;;;;5034713;28;1282;-64
2022/09/03 10:15:08;;;;;;;;;;;21.70;66.20;;;;;;5034906;28;1276;-64
2022/09/03 10:17:42;;;;;;;;;;;21.80;66.10;;;;;;5032786;28;1283;-64
2022/09/03 10:20:26;;;;;;;;;;;21.80;66.10;;;;;;5033929;28;1419;-64
2022/09/03 10:23:10;;;;;;;;;;;21.70;66.10;;;;;;5030352;28;1873;-63
2022/09/03 10:25:50;;;;;;;;;;;21.80;66.20;;;;;;5025016;28;1969;-64
2022/09/03 10:28:16;;;;;;;;;;;21.80;66.20;;;;;;5037225;28;1583;-63
2022/09/03 10:30:47;;;;;;;;;;;21.80;66.20;;;;;;5042311;28;1365;-64
2022/09/03 10:33:15;;;;;;;;;;;21.70;66.20;;;;;;5038733;28;1683;-63
2022/09/03 10:35:45;;;;;;;;;;;21.70;66.20;;;;;;5033300;28;1399;-64
2022/09/03 10:38:39;;;;;;;;;;;21.70;66.30;;;;;;5033348;28;1583;-64
2022/09/03 10:41:11;;;;;;;;;;;21.80;66.30;;;;;;5020650;28;1695;-64
2022/09/03 10:43:44;;;;;;;;;;;21.70;66.20;;;;;;5033461;28;1615;-63
2022/09/03 10:46:13;;;;;;;;;;;21.80;66.30;;;;;;5032940;28;1438;-64
2022/09/03 10:48:41;;;;;;;;;;;21.70;66.30;;;;;;5034228;28;1621;-64
2022/09/03 10:51:13;;;;;;;;;;;21.70;66.20;;;;;;5031794;28;1349;-64
2022/09/03 10:53:41;;;;;;;;;;;21.80;66.30;;;;;;5031979;28;1628;-64
2022/09/03 10:56:11;;;;;;;;;;;21.80;66.30;;;;;;5033779;28;1668;-63
2022/09/03 10:58:37;;;;;;;;;;;21.70;66.30;;;;;;5032632;28;1663;-64
2022/09/03 11:01:09;;;;;;;;;;;21.80;66.40;;;;;;5032919;28;1359;-63
2022/09/03 11:03:47;;;;;;;;;;;21.70;66.30;;;;;;5033298;28;1550;-64
2022/09/03 11:06:18;;;;;;;;;;;21.70;66.30;;;;;;5028870;28;2159;-63
2022/09/03 11:08:45;;;;;;;;;;;21.70;66.30;;;;;;5039803;28;1327;-64
2022/09/03 11:11:13;;;;;;;;;;;21.80;66.30;;;;;;5031832;28;1096;-64
2022/09/03 11:13:39;;;;;;;;;;;21.80;66.30;;;;;;5024892;28;1356;-64
2022/09/03 11:16:11;;;;;;;;;;;21.80;66.40;;;;;;5024763;28;1351;-64
2022/09/03 11:18:40;;;;;;;;;;;21.80;66.30;;;;;;5033008;28;1308;-64
2022/09/03 11:21:10;;;;;;;;;;;21.80;66.40;;;;;;5029030;28;1992;-66
2022/09/03 11:23:36;;;;;;;;;;;21.80;66.40;;;;;;5037386;28;1103;-64
2022/09/03 11:26:04;;;;;;;;;;;21.80;66.40;;;;;;5021204;28;1967;-65
2022/09/03 11:28:44;;;;;;;;;;;21.80;66.40;;;;;;5040676;28;1161;-65
2022/09/03 11:31:19;;;;;;;;;;;21.80;66.50;;;;;;5050853;28;1390;-64
2022/09/03 11:33:52;;;;;;;;;;;21.80;66.50;;;;;;5052928;28;1301;-65
2022/09/03 11:36:27;;;;;;;;;;;21.80;66.40;;;;;;5052721;28;1366;-66
2022/09/03 11:38:53;;;;;;;;;;;21.80;66.50;;;;;;5051730;28;1252;-65
2022/09/03 11:41:21;;;;;;;;;;;21.80;66.40;;;;;;5051864;28;1281;-66
2022/09/03 11:43:47;;;;;;;;;;;21.70;66.40;;;;;;5052790;28;1281;-66
2022/09/03 11:46:24;;;;;;;;;;;21.80;66.50;;;;;;5050643;28;1311;-64
2022/09/03 11:48:50;;;;;;;;;;;21.80;66.40;;;;;;5052840;28;1362;-65
2022/09/03 11:51:16;;;;;;;;;;;21.80;66.50;;;;;;5052583;28;1268;-64
2022/09/03 11:53:51;;;;;;;;;;;21.80;66.50;;;;;;5052458;28;1420;-63
2022/09/03 11:56:17;;;;;;;;;;;21.80;66.50;;;;;;5034602;28;1670;-63
2022/09/03 11:58:43;;;;;;;;;;;21.80;66.50;;;;;;5034977;28;1351;-63
2022/09/03 12:01:16;;;;;;;;;;;21.80;66.50;;;;;;5032326;28;882;-64
2022/09/03 12:03:43;;;;;;;;;;;21.80;66.50;;;;;;5048213;28;898;-64
2022/09/03 12:06:27;;;;;;;;;;;21.80;66.50;;;;;;5047796;28;1902;-64
2022/09/03 12:08:53;;;;;;;;;;;21.80;66.50;;;;;;5032607;28;882;-64
2022/09/03 12:11:31;;;;;;;;;;;21.80;66.40;;;;;;5032110;28;792;-64
2022/09/03 12:13:56;;;;;;;;;;;21.80;64.80;;;;;;5032493;28;974;-65
2022/09/03 12:16:24;;;;;;;;;;;21.80;61.60;;;;;;5032477;28;1585;-64
2022/09/03 12:18:51;;;;;;;;;;;21.80;60.70;;;;;;5048139;28;866;-64
2022/09/03 12:21:17;;;;;;;;;;;21.80;59.80;;;;;;5047396;28;823;-64
2022/09/03 12:23:49;;;;;;;;;;;21.80;59.70;;;;;;5047533;28;859;-64
2022/09/03 12:26:26;;;;;;;;;;;21.80;58.70;;;;;;5047139;28;1245;-64
2022/09/03 12:28:51;;;;;;;;;;;21.80;57.70;;;;;;5027684;28;1083;-63
2022/09/03 12:31:29;;;;;;;;;;;21.80;56.40;;;;;;5012649;28;799;-64
2022/09/03 12:33:59;;;;;;;;;;;21.80;56.80;;;;;;5012395;28;939;-64
2022/09/03 12:36:25;;;;;;;;;;;21.80;56.00;;;;;;5012401;28;1295;-64
2022/09/03 12:38:51;;;;;;;;;;;21.80;56.20;;;;;;5013244;28;836;-64
2022/09/03 12:41:25;;;;;;;;;;;21.80;56.30;;;;;;5016298;28;910;-64
2022/09/03 12:43:51;;;;;;;;;;;21.80;56.40;;;;;;5016490;28;1902;-63
2022/09/03 12:46:17;;;;;;;;;;;21.80;56.10;;;;;;5015146;28;1205;-64
2022/09/03 12:48:46;;;;;;;;;;;21.80;55.20;;;;;;5016519;28;917;-63
2022/09/03 12:51:11;;;;;;;;;;;21.80;55.00;;;;;;5014756;28;1202;-64
2022/09/03 12:53:37;;;;;;;;;;;21.70;54.60;;;;;;5015220;28;1054;-64
2022/09/03 12:56:03;;;;;;;;;;;21.70;54.00;;;;;;5015847;28;1308;-64
2022/09/03 12:58:36;;;;;;;;;;;21.70;53.60;;;;;;5025893;28;1129;-64
2022/09/03 13:01:02;;;;;;;;;;;21.70;53.10;;;;;;5030867;28;832;-63
2022/09/03 13:03:28;;;;;;;;;;;21.70;53.60;;;;;;5015857;28;914;-64
2022/09/03 13:05:54;;;;;;;;;;;21.70;52.90;;;;;;5015985;28;1906;-64
2022/09/03 13:08:21;;;;;;;;;;;21.70;53.80;;;;;;5031198;28;824;-66
2022/09/03 13:10:49;;;;;;;;;;;21.70;53.00;;;;;;5031316;28;831;-64
2022/09/03 13:13:23;;;;;;;;;;;21.70;53.50;;;;;;5015871;28;803;-65
2022/09/03 13:15:56;;;;;;;;;;;21.70;52.90;;;;;;5015754;28;1173;-66
2022/09/03 13:18:26;;;;;;;;;;;21.70;53.20;;;;;;5031332;28;915;-66
2022/09/03 13:20:54;;;;;;;;;;;21.70;53.00;;;;;;5030627;28;1034;-66
2022/09/03 13:23:28;;;;;;;;;;;21.70;52.40;;;;;;5015842;28;883;-66
2022/09/03 13:26:01;;;;;;;;;;;21.70;51.90;;;;;;5030758;28;1902;-66
2022/09/03 13:28:49;;;;;;;;;;;21.70;52.00;;;;;;5092013;22;1899;-71
2022/09/03 13:31:34;;;;;;;;;;;21.60;51.00;;;;;;5052617;28;1076;-71
2022/09/03 13:34:04;;;;;;;;;;;21.60;51.00;;;;;;5055200;28;1068;-71
2022/09/03 13:36:30;;;;;;;;;;;21.60;50.50;;;;;;5053989;28;1286;-71
2022/09/03 13:38:56;;;;;;;;;;;21.60;50.70;;;;;;5070292;28;835;-71
2022/09/03 13:41:24;;;;;;;;;;;21.60;50.50;;;;;;5054690;28;818;-71
2022/09/03 13:43:56;;;;;;;;;;;21.60;51.10;;;;;;5055139;28;768;-71
2022/09/03 13:46:23;;;;;;;;;;;21.60;51.00;;;;;;5070640;28;831;-71
2022/09/03 13:51:42;;;;;;;;;;;21.60;50.50;;;;;;5053541;28;621;-71
2022/09/03 13:54:18;;;;;;;;;;;21.60;50.60;;;;;;5070458;28;839;-70
2022/09/03 13:56:53;;;;;;;;;;;21.60;49.90;;;;;;5042478;28;2162;-71
2022/09/03 13:59:19;;;;;;;;;;;21.60;49.80;;;;;;5028935;28;1108;-71
2022/09/03 14:01:52;;;;;;;;;;;21.60;50.20;;;;;;5032323;28;1051;-70
2022/09/03 14:04:21;;;;;;;;;;;21.60;49.80;;;;;;5049951;28;1957;-69
2022/09/03 14:07:01;;;;;;;;;;;21.60;49.80;;;;;;5050147;28;1204;-70
2022/09/03 14:09:46;;;;;;;;;;;21.60;49.70;;;;;;5050186;28;773;-71
2022/09/03 14:12:22;;;;;;;;;;;21.60;49.70;;;;;;5034380;28;840;-70
2022/09/03 14:14:48;;;;;;;;;;;21.60;50.00;;;;;;5050196;28;920;-70
2022/09/03 14:17:32;;;;;;;;;;;21.60;50.80;;;;;;5033515;28;1199;-71
2022/09/03 14:19:57;;;;;;;;;;;21.60;51.40;;;;;;5034636;28;811;-70
2022/09/03 14:22:29;;;;;;;;;;;21.70;52.10;;;;;;5034039;28;937;-70
2022/09/03 14:24:56;;;;;;;;;;;21.60;52.60;;;;;;5034771;28;1898;-71
2022/09/03 14:27:25;;;;;;;;;;;21.60;53.20;;;;;;5048998;28;1406;-71
2022/09/03 14:30:01;;;;;;;;;;;21.60;53.70;;;;;;5017117;28;1168;-70
2022/09/03 14:32:50;;;;;;;;;;;21.60;54.10;;;;;;5032705;28;772;-70
2022/09/03 14:35:22;;;;;;;;;;;21.60;54.60;;;;;;5028816;28;1279;-70
2022/09/03 14:38:00;;;;;;;;;;;21.60;54.80;;;;;;5033257;28;1276;-70
2022/09/03 14:40:30;;;;;;;;;;;21.60;55.20;;;;;;5034539;28;700;-71
2022/09/03 14:43:07;;;;;;;;;;;21.60;55.40;;;;;;5032149;28;835;-70
2022/09/03 14:45:51;;;;;;;;;;;21.60;55.70;;;;;;5032855;28;1902;-72
2022/09/03 14:48:34;;;;;;;;;;;21.60;55.90;;;;;;5034079;28;1196;-72